Time;durP1;ratioP1;P1;durP2;ratioP2;P2;SDS_P1;SDS_P2;PMS_P1;PMS_P2;Temp;Humidity;BMP_temperature;BMP_pressure;BME280_temperature;BME280_humidity;BME280_pressure;Samples;Min_cycle;Max_cycle;Signal;HPM_P1;HPM_P2
2023/10/11 00:00:34;;;;;;;;;;;;;;;22.70;44.30;100508.34;6128606;23;6838;-74
2023/10/11 00:05:48;;;;;;;;;;;;;;;22.72;44.50;100509.22;6128548;23;6786;-79
2023/10/11 00:08:18;;;;;;;;;;;;;;;22.74;44.09;100510.97;6130145;23;6775;-76
2023/10/11 00:10:49;;;;;;;;;;;;;;;22.74;44.50;100513.59;6130403;23;6923;-75
2023/10/11 00:13:15;;;;;;;;;;;;;;;22.75;43.98;100514.44;6131215;23;6919;-73
2023/10/11 00:15:48;;;;;;;;;;;;;;;22.75;44.42;100517.06;6129091;23;6932;-77
2023/10/11 00:18:19;;;;;;;;;;;;;;;22.72;44.06;100515.31;6121459;23;6774;-72
2023/10/11 00:20:50;;;;;;;;;;;;;;;22.71;44.28;100513.56;6141658;23;6824;-73
2023/10/11 00:23:18;;;;;;;;;;;;;;;22.69;44.41;100517.03;6116853;23;6771;-72
2023/10/11 00:25:44;;;;;;;;;;;;;;;22.66;44.53;100517.06;6116516;23;6779;-72
2023/10/11 00:28:11;;;;;;;;;;;;;;;22.63;44.12;100517.91;6116399;23;6964;-72
2023/10/11 00:30:38;;;;;;;;;;;;;;;22.60;44.58;100525.75;6114760;23;7026;-72
2023/10/11 00:33:07;;;;;;;;;;;;;;;22.57;44.43;100528.38;6092369;23;7280;-72
2023/10/11 00:35:41;;;;;;;;;;;;;;;22.54;44.62;100531.84;6117255;23;6771;-72
2023/10/11 00:38:11;;;;;;;;;;;;;;;22.53;44.72;100521.41;6116320;23;6774;-73
2023/10/11 00:40:37;;;;;;;;;;;;;;;22.50;44.67;100529.25;6116506;23;6782;-72
2023/10/11 00:43:03;;;;;;;;;;;;;;;22.49;44.66;100525.75;6116934;23;6829;-72
2023/10/11 00:45:36;;;;;;;;;;;;;;;22.48;44.91;100527.47;6116536;23;6766;-72
2023/10/11 00:48:07;;;;;;;;;;;;;;;22.49;45.10;100523.13;6115490;23;7084;-72
2023/10/11 00:50:36;;;;;;;;;;;;;;;22.49;44.96;100523.13;6117315;23;7758;-72
2023/10/11 00:53:01;;;;;;;;;;;;;;;22.45;45.18;100514.41;6118525;23;6767;-72
2023/10/11 00:55:29;;;;;;;;;;;;;;;22.43;44.94;100503.06;6114851;23;7117;-72
2023/10/11 00:57:56;;;;;;;;;;;;;;;22.43;45.12;100507.44;6115890;23;7332;-72
2023/10/11 01:00:23;;;;;;;;;;;;;;;22.42;44.71;100497.88;6115059;23;6774;-71
2023/10/11 01:02:52;;;;;;;;;;;;;;;22.39;45.31;100500.47;6116612;23;7807;-73
2023/10/11 01:05:19;;;;;;;;;;;;;;;22.39;44.90;100496.13;6116823;23;6771;-73
2023/10/11 01:07:46;;;;;;;;;;;;;;;22.40;45.30;100502.19;6115173;23;7057;-73
2023/10/11 01:10:13;;;;;;;;;;;;;;;22.39;44.99;100500.47;6090516;23;7257;-72
2023/10/11 01:12:39;;;;;;;;;;;;;;;22.40;45.31;100494.38;6116005;23;7305;-72
2023/10/11 01:15:11;;;;;;;;;;;;;;;22.40;44.76;100487.41;6116053;23;6767;-72
2023/10/11 01:17:38;;;;;;;;;;;;;;;22.41;45.05;100480.47;6117439;23;6913;-73
2023/10/11 01:20:13;;;;;;;;;;;;;;;22.40;44.90;100484.81;6116244;23;6783;-72
2023/10/11 01:22:48;;;;;;;;;;;;;;;22.41;45.25;100477.88;6116607;23;6779;-72
2023/10/11 01:25:18;;;;;;;;;;;;;;;22.38;45.17;100475.22;6116069;23;6796;-72
2023/10/11 01:27:48;;;;;;;;;;;;;;;22.37;45.01;100476.09;6092953;23;7903;-75
2023/10/11 01:30:15;;;;;;;;;;;;;;;22.37;45.20;100479.59;6114143;23;7244;-75
2023/10/11 01:32:41;;;;;;;;;;;;;;;22.39;45.20;100474.34;6116125;23;7118;-74
2023/10/11 01:35:18;;;;;;;;;;;;;;;22.39;44.95;100469.13;6115308;23;6847;-76
2023/10/11 01:37:44;;;;;;;;;;;;;;;22.37;44.79;100463.06;6115927;23;6791;-76
2023/10/11 01:40:21;;;;;;;;;;;;;;;22.36;45.03;100459.59;6116121;23;6978;-75
2023/10/11 01:42:51;;;;;;;;;;;;;;;22.36;45.15;100458.69;6091905;23;6970;-76
2023/10/11 01:45:18;;;;;;;;;;;;;;;22.33;45.08;100468.28;6115549;23;6774;-75
2023/10/11 01:47:47;;;;;;;;;;;;;;;22.32;45.31;100463.03;6117217;23;6774;-74
2023/10/11 01:50:15;;;;;;;;;;;;;;;22.32;45.26;100463.94;6115544;23;6941;-74
2023/10/11 01:52:43;;;;;;;;;;;;;;;22.32;44.70;100470.88;6114917;23;6771;-75
2023/10/11 01:55:13;;;;;;;;;;;;;;;22.30;44.92;100470.88;6115379;23;6771;-75
2023/10/11 01:57:41;;;;;;;;;;;;;;;22.28;44.90;100459.56;6115060;23;6966;-74
2023/10/11 02:00:13;;;;;;;;;;;;;;;22.25;44.87;100462.19;6115381;23;6859;-75
2023/10/11 02:02:55;;;;;;;;;;;;;;;22.22;44.81;100462.19;6139892;23;11465;-75
2023/10/11 02:05:26;;;;;;;;;;;;;;;22.17;45.42;100458.69;6115673;23;6937;-75
2023/10/11 02:07:52;;;;;;;;;;;;;;;22.12;45.23;100453.47;6115910;23;6961;-76
2023/10/11 02:10:27;;;;;;;;;;;;;;;22.09;44.76;100455.19;6090994;23;7010;-75
2023/10/11 02:12:57;;;;;;;;;;;;;;;22.03;45.30;100451.72;6115314;23;6767;-75
2023/10/11 02:15:29;;;;;;;;;;;;;;;22.00;45.02;100449.09;6115221;23;7100;-75
2023/10/11 02:17:59;;;;;;;;;;;;;;;21.98;45.02;100437.78;6116909;23;7135;-76
2023/10/11 02:20:24;;;;;;;;;;;;;;;21.99;44.75;100447.34;6113887;23;7972;-75
2023/10/11 02:22:55;;;;;;;;;;;;;;;21.99;44.82;100439.53;6116025;23;6876;-76
2023/10/11 02:25:25;;;;;;;;;;;;;;;21.98;44.53;100437.78;6091600;23;8521;-76
2023/10/11 02:27:53;;;;;;;;;;;;;;;21.99;44.87;100433.47;6117188;23;6775;-74
2023/10/11 02:30:24;;;;;;;;;;;;;;;21.99;44.64;100428.25;6114252;23;6995;-74
2023/10/11 02:32:58;;;;;;;;;;;;;;;21.98;44.89;100429.97;6091589;23;7002;-75
2023/10/11 02:35:27;;;;;;;;;;;;;;;21.98;44.16;100439.53;6115633;23;6932;-75
2023/10/11 02:37:55;;;;;;;;;;;;;;;21.94;44.33;100430.84;6116267;23;7044;-76
2023/10/11 02:40:25;;;;;;;;;;;;;;;21.93;44.34;100434.31;6124171;23;6950;-74
2023/10/11 02:42:56;;;;;;;;;;;;;;;21.91;44.04;100429.09;6123616;23;7101;-77
2023/10/11 02:45:25;;;;;;;;;;;;;;;21.90;44.27;100426.47;6127488;23;6934;-78
2023/10/11 02:48:02;;;;;;;;;;;;;;;21.91;44.52;100426.47;6123501;23;6775;-77
2023/10/11 02:50:36;;;;;;;;;;;;;;;21.92;43.96;100427.34;6126854;23;7026;-79
2023/10/11 02:53:12;;;;;;;;;;;;;;;21.92;44.05;100429.94;6125907;23;6971;-78
2023/10/11 02:55:38;;;;;;;;;;;;;;;21.92;44.28;100428.22;6101017;23;7263;-76
2023/10/11 02:58:07;;;;;;;;;;;;;;;21.91;44.03;100421.25;6123125;23;6779;-79
2023/10/11 03:00:34;;;;;;;;;;;;;;;21.92;43.64;100422.13;6100186;23;6957;-77
2023/10/11 03:03:00;;;;;;;;;;;;;;;21.90;43.81;100422.13;6127045;23;6814;-74
2023/10/11 03:05:27;;;;;;;;;;;;;;;21.88;43.89;100426.47;6125071;23;6851;-76
2023/10/11 03:10:59;;;;;;;;;;;;;;;21.84;43.74;100431.69;6126126;23;6771;-76
2023/10/11 03:13:29;;;;;;;;;;;;;;;21.82;43.59;100430.78;6125088;23;6775;-78
2023/10/11 03:15:57;;;;;;;;;;;;;;;21.80;44.00;100424.72;6150530;23;6985;-79
2023/10/11 03:18:33;;;;;;;;;;;;;;;21.77;43.75;100430.78;6103100;23;6819;-76
2023/10/11 03:21:32;;;;;;;;;;;;;;;21.74;43.65;100428.19;6127935;23;6774;-77
2023/10/11 03:24:04;;;;;;;;;;;;;;;21.70;43.52;100419.47;6126527;23;6932;-77
2023/10/11 03:28:58;;;;;;;;;;;;;;;21.67;43.58;100413.34;6133691;23;6931;-78
2023/10/11 03:31:32;;;;;;;;;;;;;;;21.65;43.59;100402.94;6119572;23;6955;-80
2023/10/11 03:34:00;;;;;;;;;;;;;;;21.64;43.45;100406.41;6117853;23;7089;-79
2023/10/11 03:36:35;;;;;;;;;;;;;;;21.62;43.77;100405.50;6121549;23;7034;-78
2023/10/11 03:39:09;;;;;;;;;;;;;;;21.61;43.60;100402.06;6119190;23;6775;-79
2023/10/11 03:41:45;;;;;;;;;;;;;;;21.59;43.34;100398.56;6142899;23;7013;-81
2023/10/11 03:44:17;;;;;;;;;;;;;;;21.57;43.65;100395.06;6116417;23;6775;-77
2023/10/11 03:46:47;;;;;;;;;;;;;;;21.56;43.48;100390.72;6121111;23;7141;-75
2023/10/11 03:49:59;;;;;;;;;;;;;;;21.54;43.48;100386.41;6119347;23;6954;-75
2023/10/11 03:52:00;;;;;;;;;;;;;;;21.51;43.45;100395.94;6120208;23;6775;-78
2023/10/11 03:54:26;;;;;;;;;;;;;;;21.48;43.36;100387.22;6119976;23;7261;-78
2023/10/11 03:56:54;;;;;;;;;;;;;;;21.46;43.71;100384.63;6120289;23;7123;-77
2023/10/11 03:59:21;;;;;;;;;;;;;;;21.44;43.92;100385.47;6117163;23;7259;-75
2023/10/11 04:01:49;;;;;;;;;;;;;;;21.42;43.75;100372.44;6117403;23;6771;-74
2023/10/11 04:04:16;;;;;;;;;;;;;;;21.43;43.93;100387.22;6116368;23;6775;-75
2023/10/11 04:06:42;;;;;;;;;;;;;;;21.46;43.88;100371.59;6130130;23;6934;-76
2023/10/11 04:09:22;;;;;;;;;;;;;;;21.45;43.64;100374.19;6148478;23;6975;-76
2023/10/11 04:11:55;;;;;;;;;;;;;;;21.44;43.36;100375.94;6100048;23;6962;-75
2023/10/11 04:14:39;;;;;;;;;;;;;;;21.42;43.61;100375.03;6124237;23;6778;-75
2023/10/11 04:17:07;;;;;;;;;;;;;;;21.40;43.40;100379.38;6149529;23;8481;-75
2023/10/11 04:19:34;;;;;;;;;;;;;;;21.37;43.43;100376.78;6119387;23;6977;-75
2023/10/11 04:22:12;;;;;;;;;;;;;;;21.36;43.73;100383.72;6120785;23;6968;-75
2023/10/11 04:24:39;;;;;;;;;;;;;;;21.33;44.05;100369.81;6099550;23;7164;-76
2023/10/11 04:29:50;;;;;;;;;;;;;;;21.29;43.80;100374.13;6158023;23;6767;-75
2023/10/11 04:32:41;;;;;;;;;;;;;;;21.29;43.77;100365.47;6120915;23;7072;-75
2023/10/11 04:35:25;;;;;;;;;;;;;;;21.29;43.73;100371.53;6124584;23;6776;-74
2023/10/11 04:37:54;;;;;;;;;;;;;;;21.29;43.46;100379.34;6125044;23;7165;-76
2023/10/11 04:40:40;;;;;;;;;;;;;;;21.29;43.62;100370.66;6121436;23;6925;-75
2023/10/11 04:43:25;;;;;;;;;;;;;;;21.28;43.59;100381.97;6125473;23;6779;-74
2023/10/11 04:46:00;;;;;;;;;;;;;;;21.26;43.87;100394.13;6125207;23;7061;-76
2023/10/11 04:48:33;;;;;;;;;;;;;;;21.25;43.41;100397.59;6123636;23;6779;-74
2023/10/11 04:51:04;;;;;;;;;;;;;;;21.21;43.47;100394.97;6122696;23;6775;-75
2023/10/11 04:59:07;;;;;;;;;;;;;;;21.15;43.82;100397.56;6123862;23;6775;-74
2023/10/11 05:02:24;;;;;;;;;;;;;;;21.13;43.65;100391.44;6145737;23;6964;-75
2023/10/11 05:04:31;;;;;;;;;;;;;;;21.15;43.80;100391.47;6119310;23;6940;-76
2023/10/11 05:06:57;;;;;;;;;;;;;;;21.15;43.69;100389.75;6129854;23;6833;-77
2023/10/11 05:09:38;;;;;;;;;;;;;;;21.18;43.71;100394.06;6118337;23;7801;-75
2023/10/11 05:12:09;;;;;;;;;;;;;;;21.20;43.77;100385.41;6117152;23;7049;-76
2023/10/11 05:14:54;;;;;;;;;;;;;;;21.24;43.69;100396.72;6117901;23;6770;-75
2023/10/11 05:31:01;;;;;;;;;;;;;;;21.37;43.46;100397.63;6122471;23;6770;-75
2023/10/11 05:33:41;;;;;;;;;;;;;;;21.40;43.21;100388.97;6095741;23;6778;-74
2023/10/11 05:52:44;;;;;;;;;;;;;;;21.53;42.86;100387.22;6090272;23;6764;-75
2023/10/11 05:55:10;;;;;;;;;;;;;;;21.56;43.17;100382.06;6089099;23;6906;-74
2023/10/11 05:57:35;;;;;;;;;;;;;;;21.57;42.91;100384.63;6088205;23;7016;-75
2023/10/11 06:00:09;;;;;;;;;;;;;;;21.59;42.80;100380.31;6087809;23;8014;-74
2023/10/11 06:02:38;;;;;;;;;;;;;;;21.61;42.58;100364.66;6086973;23;6891;-75
2023/10/11 06:05:10;;;;;;;;;;;;;;;21.63;42.69;100375.94;6110131;23;6774;-74
2023/10/11 06:07:37;;;;;;;;;;;;;;;21.64;42.88;100375.97;6111209;23;6826;-75
2023/10/11 06:10:08;;;;;;;;;;;;;;;21.66;42.46;100373.38;6087417;23;6963;-75
2023/10/11 06:12:35;;;;;;;;;;;;;;;21.68;42.81;100382.09;6109802;23;6836;-74
2023/10/11 06:15:08;;;;;;;;;;;;;;;21.70;42.43;100385.56;6114535;23;6767;-74
2023/10/11 06:17:41;;;;;;;;;;;;;;;21.71;42.57;100386.47;6076725;23;6966;-75
2023/10/11 06:20:23;;;;;;;;;;;;;;;21.72;42.74;100381.22;6112655;23;6778;-75
2023/10/11 06:22:51;;;;;;;;;;;;;;;21.74;42.73;100387.34;6091129;23;6791;-74
2023/10/11 06:25:49;;;;;;;;;;;;;;;21.77;42.76;100392.53;6089369;23;6969;-77
2023/10/11 06:28:13;;;;;;;;;;;;;;;21.80;42.78;100393.41;6087697;23;6771;-75
2023/10/11 06:30:42;;;;;;;;;;;;;;;21.85;42.68;100383.88;6118391;23;6855;-79
2023/10/11 06:33:12;;;;;;;;;;;;;;;21.90;42.54;100382.13;6120812;23;6965;-79
2023/10/11 06:35:49;;;;;;;;;;;;;;;21.94;42.32;100386.50;6119891;23;6779;-79
2023/10/11 06:38:15;;;;;;;;;;;;;;;21.98;42.13;100398.66;6121303;23;6991;-76
2023/10/11 06:40:49;;;;;;;;;;;;;;;22.01;42.29;100409.09;6091613;23;6964;-72
2023/10/11 06:43:15;;;;;;;;;;;;;;;22.05;42.58;100408.22;6113380;23;6972;-72
2023/10/11 06:45:42;;;;;;;;;;;;;;;22.08;42.20;100399.53;6090149;23;6771;-73
2023/10/11 06:48:09;;;;;;;;;;;;;;;22.10;42.31;100399.53;6089992;23;6775;-73
2023/10/11 06:50:36;;;;;;;;;;;;;;;22.13;42.19;100402.16;6089037;23;6871;-73
2023/10/11 06:53:08;;;;;;;;;;;;;;;22.18;42.46;100408.22;6090064;23;6973;-72
2023/10/11 06:55:39;;;;;;;;;;;;;;;22.19;42.53;100413.47;6064436;23;7129;-74
2023/10/11 06:58:16;;;;;;;;;;;;;;;22.22;42.24;100416.94;6066361;23;8153;-73
2023/10/11 07:00:48;;;;;;;;;;;;;;;22.24;41.98;100423.00;6066964;23;8764;-72
2023/10/11 07:03:26;;;;;;;;;;;;;;;22.26;42.32;100416.94;6067735;23;7145;-73
2023/10/11 07:06:01;;;;;;;;;;;;;;;22.28;42.10;100415.19;6063991;23;7221;-72
2023/10/11 07:08:34;;;;;;;;;;;;;;;22.30;41.79;100412.59;6089166;23;6775;-72
2023/10/11 07:11:17;;;;;;;;;;;;;;;22.31;41.81;100414.31;6066495;23;7003;-72
2023/10/11 07:13:54;;;;;;;;;;;;;;;22.34;41.79;100415.19;6088961;23;7077;-73
2023/10/11 07:16:23;;;;;;;;;;;;;;;22.37;42.45;100410.84;6089752;23;6914;-73
2023/10/11 07:18:54;;;;;;;;;;;;;;;22.41;42.04;100408.22;6066072;23;7034;-72
2023/10/11 07:21:40;;;;;;;;;;;;;;;22.45;42.28;100409.09;6066669;23;7001;-73
2023/10/11 07:24:19;;;;;;;;;;;;;;;22.50;41.99;100409.13;6088695;23;8255;-72
2023/10/11 07:29:13;;;;;;;;;;;;;;;22.60;42.16;100421.28;6089628;23;6786;-74
2023/10/11 07:31:48;;;;;;;;;;;;;;;22.64;41.82;100422.16;6064523;23;7029;-73
2023/10/11 07:34:20;;;;;;;;;;;;;;;22.69;41.93;100420.38;6089295;23;7152;-73
2023/10/11 07:36:50;;;;;;;;;;;;;;;22.75;41.70;100434.34;6089060;23;6775;-72
2023/10/11 07:41:48;;;;;;;;;;;;;;;22.84;42.10;100432.53;6088545;23;6763;-72
2023/10/11 07:44:18;;;;;;;;;;;;;;;22.91;41.64;100415.13;6089192;23;6942;-73
2023/10/11 07:46:48;;;;;;;;;;;;;;;22.97;41.93;100410.75;6088405;23;6978;-73
2023/10/11 07:49:23;;;;;;;;;;;;;;;23.05;42.03;100413.34;6088746;23;6782;-71
2023/10/11 07:51:53;;;;;;;;;;;;;;;23.12;41.42;100409.84;6089428;23;6835;-72
2023/10/11 07:54:22;;;;;;;;;;;;;;;23.24;41.79;100415.88;6064650;23;6982;-72
2023/10/11 07:56:57;;;;;;;;;;;;;;;23.32;41.50;100416.75;6088938;23;6917;-74
2023/10/11 07:59:26;;;;;;;;;;;;;;;23.38;41.68;100411.50;6089221;23;6855;-71
2023/10/11 08:01:56;;;;;;;;;;;;;;;23.46;41.34;100408.84;6064387;23;6945;-72
2023/10/11 08:04:22;;;;;;;;;;;;;;;23.55;41.52;100407.91;6088266;23;6775;-72
2023/10/11 08:06:59;;;;;;;;;;;;;;;23.64;41.00;100407.00;6087475;23;7005;-72
2023/10/11 08:10:29;;;;;;;;;;;;;;;23.74;41.31;100407.78;6089870;23;6945;-71
2023/10/11 08:12:23;;;;;;;;;;;;;;;23.81;40.80;100402.53;6085272;23;6805;-70
2023/10/11 08:14:53;;;;;;;;;;;;;;;23.90;41.60;100409.44;6089428;23;7032;-72
2023/10/11 08:17:20;;;;;;;;;;;;;;;23.98;41.35;100405.03;6089720;23;6779;-71
2023/10/11 08:19:48;;;;;;;;;;;;;;;24.06;41.32;100404.13;6089822;23;6775;-72
2023/10/11 08:22:16;;;;;;;;;;;;;;;24.15;41.33;100406.69;6068594;23;6955;-74
2023/10/11 08:24:50;;;;;;;;;;;;;;;24.24;40.92;100411.84;6142880;23;6775;-72
2023/10/11 08:27:27;;;;;;;;;;;;;;;24.31;41.23;100414.38;6095501;23;6770;-72
2023/10/11 08:30:16;;;;;;;;;;;;;;;24.36;40.92;100418.69;6096254;23;6782;-72
2023/10/11 08:32:42;;;;;;;;;;;;;;;24.43;40.83;100429.97;6098599;23;11443;-72
2023/10/11 08:35:16;;;;;;;;;;;;;;;24.50;41.00;100436.06;6067490;23;6941;-72
2023/10/11 08:37:42;;;;;;;;;;;;;;;24.58;40.68;100438.59;6093768;23;6811;-72
2023/10/11 08:40:22;;;;;;;;;;;;;;;24.63;41.10;100436.81;6095237;23;6826;-72
2023/10/11 08:42:52;;;;;;;;;;;;;;;24.69;40.97;100431.50;6096762;23;6798;-72
2023/10/11 08:45:50;;;;;;;;;;;;;;;24.77;40.60;100445.38;6093813;23;6917;-72
2023/10/11 08:48:17;;;;;;;;;;;;;;;24.84;40.56;100440.97;6076673;23;6974;-74
2023/10/11 08:50:52;;;;;;;;;;;;;;;24.90;40.62;100437.41;6093575;23;6783;-73
2023/10/11 08:53:24;;;;;;;;;;;;;;;24.96;40.83;100439.97;6095211;23;7110;-72
2023/10/11 08:55:56;;;;;;;;;;;;;;;25.01;40.79;100440.78;6092951;23;7050;-73
2023/10/11 08:58:28;;;;;;;;;;;;;;;25.04;40.38;100439.88;6092925;23;6972;-72
2023/10/11 09:00:59;;;;;;;;;;;;;;;25.08;40.16;100449.47;6109186;23;7179;-76
2023/10/11 09:03:29;;;;;;;;;;;;;;;25.11;40.26;100436.31;6040411;23;6985;-76
2023/10/11 09:06:00;;;;;;;;;;;;;;;25.15;40.17;100431.91;6040606;23;6965;-76
2023/10/11 09:08:31;;;;;;;;;;;;;;;25.16;40.48;100437.13;6065757;23;6961;-76
2023/10/11 09:11:11;;;;;;;;;;;;;;;25.21;40.22;100437.09;6087432;23;6913;-76
2023/10/11 09:13:38;;;;;;;;;;;;;;;25.22;39.91;100442.28;6088686;23;6779;-75
2023/10/11 09:16:14;;;;;;;;;;;;;;;25.26;40.13;100437.88;6040915;23;7137;-75
2023/10/11 09:18:46;;;;;;;;;;;;;;;25.31;40.31;100443.06;6066718;23;6855;-75
2023/10/11 09:21:17;;;;;;;;;;;;;;;25.35;40.12;100443.00;6065863;23;6775;-76
2023/10/11 09:23:48;;;;;;;;;;;;;;;25.40;40.08;100437.69;6088063;23;6937;-76
2023/10/11 09:26:21;;;;;;;;;;;;;;;25.43;39.54;100436.81;6088401;23;6854;-75
2023/10/11 09:29:02;;;;;;;;;;;;;;;25.50;40.05;100446.38;6065158;23;6831;-76
2023/10/11 09:31:32;;;;;;;;;;;;;;;25.55;39.94;100451.56;6081552;23;6913;-76
2023/10/11 09:34:07;;;;;;;;;;;;;;;25.61;39.67;100454.97;6119289;23;6930;-75
2023/10/11 09:36:34;;;;;;;;;;;;;;;25.67;39.78;100448.75;6118494;23;7419;-76
2023/10/11 09:39:02;;;;;;;;;;;;;;;25.73;39.53;100455.66;6092630;23;6988;-76
2023/10/11 09:41:42;;;;;;;;;;;;;;;25.82;39.85;100458.16;6093218;23;6778;-75
2023/10/11 09:44:12;;;;;;;;;;;;;;;25.89;39.72;100462.44;6116739;23;6839;-75
2023/10/11 09:46:43;;;;;;;;;;;;;;;25.98;39.75;100464.03;6091178;23;6831;-75
2023/10/11 09:49:12;;;;;;;;;;;;;;;26.08;39.87;100464.78;6092276;23;6971;-75
2023/10/11 09:51:43;;;;;;;;;;;;;;;26.19;39.72;100455.00;6092991;23;6779;-75
2023/10/11 09:54:13;;;;;;;;;;;;;;;26.28;39.53;100453.97;6093592;23;6978;-75
2023/10/11 09:57:50;;;;;;;;;;;;;;;26.39;39.44;100452.94;6094102;23;6783;-76
2023/10/11 10:00:35;;;;;;;;;;;;;;;26.52;39.19;100451.84;6118951;23;6779;-76
2023/10/11 10:03:04;;;;;;;;;;;;;;;26.77;39.33;100443.50;6096423;23;6770;-75
2023/10/11 10:06:21;;;;;;;;;;;;;;;27.44;38.60;100439.56;6093139;23;7012;-75
2023/10/11 10:09:23;;;;;;;;;;;;;;;28.40;37.40;100445.28;6100116;23;6959;-76
2023/10/11 10:12:05;;;;;;;;;;;;;;;29.23;37.35;100443.91;6118377;23;7222;-76
2023/10/11 10:14:36;;;;;;;;;;;;;;;29.94;35.71;100429.50;6146434;23;7325;-76
2023/10/11 10:17:15;;;;;;;;;;;;;;;30.59;34.73;100443.19;6123050;23;6775;-77
2023/10/11 10:19:47;;;;;;;;;;;;;;;31.24;34.65;100440.03;6123913;23;6783;-77
2023/10/11 10:22:23;;;;;;;;;;;;;;;31.80;33.73;100437.00;6122733;23;6977;-76
2023/10/11 10:24:54;;;;;;;;;;;;;;;32.34;32.79;100425.97;6123286;23;6941;-76
2023/10/11 10:27:35;;;;;;;;;;;;;;;32.73;31.94;100441.09;6122439;23;6787;-75
2023/10/11 10:30:08;;;;;;;;;;;;;;;32.97;31.79;100444.44;6146046;23;6775;-76
2023/10/11 10:32:34;;;;;;;;;;;;;;;33.17;31.42;100447.97;6143562;23;6775;-76
2023/10/11 10:35:18;;;;;;;;;;;;;;;33.49;30.77;100452.75;6122188;23;6775;-76
2023/10/11 10:37:56;;;;;;;;;;;;;;;33.84;30.51;100449.31;6148263;23;6920;-76
2023/10/11 10:40:26;;;;;;;;;;;;;;;34.18;30.01;100451.19;6098026;23;7150;-75
2023/10/11 10:43:07;;;;;;;;;;;;;;;34.38;29.82;100451.13;6121679;23;6982;-76
2023/10/11 10:45:36;;;;;;;;;;;;;;;34.58;29.12;100439.50;6146260;23;7236;-77
2023/10/11 10:48:13;;;;;;;;;;;;;;;34.76;29.59;100435.81;6098064;23;7178;-76
2023/10/11 10:51:01;;;;;;;;;;;;;;;34.73;28.94;100430.66;6147759;23;6782;-76
2023/10/11 10:53:50;;;;;;;;;;;;;;;34.68;29.02;100438.06;6123223;23;7085;-76
2023/10/11 10:56:26;;;;;;;;;;;;;;;34.38;28.89;100424.53;6123811;23;6965;-76
2023/10/11 10:59:20;;;;;;;;;;;;;;;33.82;29.26;100427.28;6121222;23;6823;-76
2023/10/11 11:01:47;;;;;;;;;;;;;;;33.45;29.32;100429.91;6104453;23;6771;-75
2023/10/11 11:04:18;;;;;;;;;;;;;;;33.48;29.51;100425.34;6070436;23;6964;-77
2023/10/11 11:06:49;;;;;;;;;;;;;;;33.72;29.43;100416.25;6094906;23;6974;-78
2023/10/11 11:09:26;;;;;;;;;;;;;;;34.04;29.05;100416.47;6095814;23;6783;-76
2023/10/11 11:11:55;;;;;;;;;;;;;;;34.39;28.73;100413.81;6116210;23;6783;-75
2023/10/11 11:14:23;;;;;;;;;;;;;;;34.68;28.33;100422.09;6042850;23;6962;-76
2023/10/11 11:16:58;;;;;;;;;;;;;;;34.81;27.70;100413.44;6066895;23;7190;-76
2023/10/11 11:19:26;;;;;;;;;;;;;;;34.72;28.35;100410.31;6066812;23;7322;-76
2023/10/11 11:22:19;;;;;;;;;;;;;;;34.56;28.16;100417.41;6066593;23;6787;-75
2023/10/11 11:24:45;;;;;;;;;;;;;;;34.19;27.52;100410.38;6044563;23;6959;-75
2023/10/11 11:27:16;;;;;;;;;;;;;;;33.94;27.88;100405.41;6066125;23;6782;-76
2023/10/11 11:29:42;;;;;;;;;;;;;;;33.96;28.35;100406.22;6090441;23;7209;-76
2023/10/11 11:32:15;;;;;;;;;;;;;;;34.19;28.14;100397.09;6041002;23;6995;-77
2023/10/11 11:35:10;;;;;;;;;;;;;;;34.54;28.18;100403.31;6066359;23;7176;-75
2023/10/11 11:38:02;;;;;;;;;;;;;;;34.95;27.65;100400.22;6065854;23;6775;-76
2023/10/11 11:40:36;;;;;;;;;;;;;;;35.34;27.45;100407.91;6065947;23;7200;-76
2023/10/11 11:43:03;;;;;;;;;;;;;;;35.48;26.58;100394.69;6066067;23;6779;-76
2023/10/11 11:45:35;;;;;;;;;;;;;;;35.18;26.48;100395.47;6041291;23;6978;-75
2023/10/11 11:48:05;;;;;;;;;;;;;;;34.79;27.04;100402.88;6091252;23;6774;-77
2023/10/11 11:50:36;;;;;;;;;;;;;;;34.30;26.83;100401.00;6041646;23;6984;-76
2023/10/11 11:53:04;;;;;;;;;;;;;;;33.77;27.49;100388.53;6041711;23;6994;-76
2023/10/11 11:55:29;;;;;;;;;;;;;;;33.44;27.82;100385.69;6065118;23;6767;-77
2023/10/11 11:57:55;;;;;;;;;;;;;;;33.48;27.81;100384.63;6064304;23;6746;-76
2023/10/11 12:02:55;;;;;;;;;;;;;;;33.72;27.32;100381.72;6076143;23;6759;-76
2023/10/11 12:05:22;;;;;;;;;;;;;;;33.38;27.30;100381.56;6066170;23;6829;-77
2023/10/11 12:07:52;;;;;;;;;;;;;;;32.86;27.72;100382.19;6066287;23;6826;-76
2023/10/11 12:10:23;;;;;;;;;;;;;;;32.27;28.18;100382.94;6042442;23;6819;-76
2023/10/11 12:12:55;;;;;;;;;;;;;;;31.67;28.64;100381.84;6074513;23;6972;-77
2023/10/11 12:15:21;;;;;;;;;;;;;;;31.20;29.35;100384.59;6088450;23;6821;-76
2023/10/11 12:17:53;;;;;;;;;;;;;;;30.80;29.70;100377.22;6088506;23;6782;-76
2023/10/11 12:20:22;;;;;;;;;;;;;;;30.49;29.79;100373.91;6065744;23;6886;-76
2023/10/11 12:22:50;;;;;;;;;;;;;;;30.21;30.27;100384.56;6088291;23;6945;-75
2023/10/11 12:25:24;;;;;;;;;;;;;;;29.97;31.13;100376.56;6090669;23;6962;-76
2023/10/11 12:27:50;;;;;;;;;;;;;;;29.76;31.78;100357.00;6088877;23;6798;-76
2023/10/11 12:30:19;;;;;;;;;;;;;;;29.63;31.89;100372.38;6086105;23;7028;-76
2023/10/11 12:32:52;;;;;;;;;;;;;;;29.52;31.89;100362.16;6059836;23;6775;-76
2023/10/11 12:35:23;;;;;;;;;;;;;;;29.44;32.47;100359.75;6059825;23;6843;-76
2023/10/11 12:37:49;;;;;;;;;;;;;;;29.39;32.04;100353.72;6059458;23;7178;-76
2023/10/11 12:40:24;;;;;;;;;;;;;;;29.35;31.94;100354.72;6060711;23;6775;-75
2023/10/11 12:42:50;;;;;;;;;;;;;;;29.29;32.17;100347.03;6060690;23;6949;-82
2023/10/11 12:45:18;;;;;;;;;;;;;;;29.24;32.45;100339.25;6060499;23;6782;-81
2023/10/11 12:47:45;;;;;;;;;;;;;;;29.20;32.30;100341.13;6060423;23;7120;-80
2023/10/11 12:50:13;;;;;;;;;;;;;;;29.18;32.22;100344.69;6083998;23;6950;-77
2023/10/11 12:52:40;;;;;;;;;;;;;;;29.16;32.41;100344.75;6060660;23;6775;-77
2023/10/11 12:55:07;;;;;;;;;;;;;;;29.15;32.79;100339.53;6059749;23;7005;-82
2023/10/11 12:57:38;;;;;;;;;;;;;;;29.16;32.62;100322.78;6059496;23;6779;-79
2023/10/11 13:00:28;;;;;;;;;;;;;;;29.14;32.36;100330.72;6060106;23;7138;-78
2023/10/11 13:02:59;;;;;;;;;;;;;;;29.15;32.33;100334.25;6118374;23;11319;-79
2023/10/11 13:05:33;;;;;;;;;;;;;;;29.18;33.11;100323.59;6118385;23;7100;-76
2023/10/11 13:07:59;;;;;;;;;;;;;;;29.25;32.44;100328.63;6093360;23;7044;-79
2023/10/11 13:10:24;;;;;;;;;;;;;;;29.35;32.81;100328.34;6117804;23;6894;-78
2023/10/11 13:12:53;;;;;;;;;;;;;;;29.39;32.79;100327.34;6116447;23;7368;-81
2023/10/11 13:15:22;;;;;;;;;;;;;;;29.39;32.07;100333.47;6140854;23;7033;-78
2023/10/11 13:17:49;;;;;;;;;;;;;;;29.36;32.48;100324.81;6117374;23;6775;-80
2023/10/11 13:20:18;;;;;;;;;;;;;;;29.35;32.40;100320.41;6116712;23;6950;-79
2023/10/11 13:22:50;;;;;;;;;;;;;;;29.34;32.60;100326.59;6117628;23;6972;-79
2023/10/11 13:25:23;;;;;;;;;;;;;;;29.34;32.80;100322.22;6118336;23;6963;-77
2023/10/11 13:27:54;;;;;;;;;;;;;;;29.38;33.41;100321.19;6117149;23;7179;-77
2023/10/11 13:30:23;;;;;;;;;;;;;;;29.38;32.78;100315.06;6116332;23;6958;-80
2023/10/11 13:32:57;;;;;;;;;;;;;;;29.41;32.93;100304.41;6117408;23;7100;-76
2023/10/11 13:35:23;;;;;;;;;;;;;;;29.39;32.73;100298.31;6117845;23;6838;-80
2023/10/11 13:37:51;;;;;;;;;;;;;;;29.37;32.88;100295.72;6119311;23;6861;-78
2023/10/11 13:40:17;;;;;;;;;;;;;;;29.36;32.27;100295.78;6117587;23;6834;-80
2023/10/11 13:42:43;;;;;;;;;;;;;;;29.35;32.12;100288.75;6119237;23;6812;-76
2023/10/11 13:45:16;;;;;;;;;;;;;;;29.36;32.39;100286.06;6117998;23;6930;-80
2023/10/11 13:47:50;;;;;;;;;;;;;;;29.39;32.59;100290.38;6117355;23;8492;-79
2023/10/11 13:50:22;;;;;;;;;;;;;;;29.41;32.85;100285.91;6095033;23;6968;-73
2023/10/11 13:52:53;;;;;;;;;;;;;;;29.42;32.25;100295.56;6094542;23;6988;-73
2023/10/11 13:55:23;;;;;;;;;;;;;;;29.45;32.85;100292.84;6092771;23;6962;-73
2023/10/11 13:57:52;;;;;;;;;;;;;;;29.53;32.09;100295.25;6116642;23;6906;-73
2023/10/11 14:05:45;;;;;;;;;;;;;;;29.79;32.84;100289.09;6126575;23;6759;-73
2023/10/11 14:08:28;;;;;;;;;;;;;;;29.81;32.36;100286.41;6093164;23;7199;-72
2023/10/11 14:10:54;;;;;;;;;;;;;;;29.80;32.23;100293.47;6141661;23;6824;-73